sensor_id;sensor_type;location;lat;lon;timestamp;P1;durP1;ratioP1;P2;durP2;ratioP2
2029;SDS011;1020;48.854;8.830;2023-03-31T00:01:50;2.63;;;2.03;;
2029;SDS011;1020;48.854;8.830;2023-03-31T00:04:18;4.90;;;1.67;;
2029;SDS011;1020;48.854;8.830;2023-03-31T00:06:48;2.20;;;1.60;;
2029;SDS011;1020;48.854;8.830;2023-03-31T00:09:19;3.10;;;1.73;;
2029;SDS011;1020;48.854;8.830;2023-03-31T00:11:46;2.07;;;1.90;;
2029;SDS011;1020;48.854;8.830;2023-03-31T00:14:14;5.43;;;2.13;;
2029;SDS011;1020;48.854;8.830;2023-03-31T00:16:42;4.73;;;2.20;;
2029;SDS011;1020;48.854;8.830;2023-03-31T00:19:09;4.87;;;2.40;;
2029;SDS011;1020;48.854;8.830;2023-03-31T00:21:42;3.63;;;1.77;;
2029;SDS011;1020;48.854;8.830;2023-03-31T00:24:09;2.90;;;1.60;;
2029;SDS011;1020;48.854;8.830;2023-03-31T00:26:38;4.13;;;1.77;;
2029;SDS011;1020;48.854;8.830;2023-03-31T00:29:06;4.30;;;2.13;;
2029;SDS011;1020;48.854;8.830;2023-03-31T00:31:34;3.80;;;1.97;;
2029;SDS011;1020;48.854;8.830;2023-03-31T00:34:02;2.73;;;1.87;;
2029;SDS011;1020;48.854;8.830;2023-03-31T00:36:29;3.60;;;2.07;;
2029;SDS011;1020;48.854;8.830;2023-03-31T00:39:01;4.93;;;2.10;;
2029;SDS011;1020;48.854;8.830;2023-03-31T00:41:31;3.67;;;1.90;;
2029;SDS011;1020;48.854;8.830;2023-03-31T00:44:00;2.60;;;1.63;;
2029;SDS011;1020;48.854;8.830;2023-03-31T00:46:32;8.23;;;2.40;;
2029;SDS011;1020;48.854;8.830;2023-03-31T00:49:03;4.37;;;1.93;;
2029;SDS011;1020;48.854;8.830;2023-03-31T00:51:30;3.43;;;1.63;;
2029;SDS011;1020;48.854;8.830;2023-03-31T00:54:00;3.00;;;1.63;;
2029;SDS011;1020;48.854;8.830;2023-03-31T00:56:31;3.30;;;1.87;;
2029;SDS011;1020;48.854;8.830;2023-03-31T00:59:05;2.83;;;1.70;;
2029;SDS011;1020;48.854;8.830;2023-03-31T01:01:34;4.13;;;1.90;;
2029;SDS011;1020;48.854;8.830;2023-03-31T01:04:07;2.53;;;1.70;;
2029;SDS011;1020;48.854;8.830;2023-03-31T01:06:35;4.60;;;2.07;;
2029;SDS011;1020;48.854;8.830;2023-03-31T01:09:11;6.50;;;2.07;;
2029;SDS011;1020;48.854;8.830;2023-03-31T01:11:40;4.80;;;1.47;;
2029;SDS011;1020;48.854;8.830;2023-03-31T01:14:11;4.27;;;1.67;;
2029;SDS011;1020;48.854;8.830;2023-03-31T01:16:38;2.90;;;1.73;;
2029;SDS011;1020;48.854;8.830;2023-03-31T01:19:06;5.27;;;2.03;;
2029;SDS011;1020;48.854;8.830;2023-03-31T01:21:45;6.53;;;1.70;;
2029;SDS011;1020;48.854;8.830;2023-03-31T01:24:41;2.90;;;1.60;;
2029;SDS011;1020;48.854;8.830;2023-03-31T01:27:49;5.37;;;2.00;;
2029;SDS011;1020;48.854;8.830;2023-03-31T01:30:47;4.63;;;1.60;;
2029;SDS011;1020;48.854;8.830;2023-03-31T01:33:43;4.63;;;2.07;;
2029;SDS011;1020;48.854;8.830;2023-03-31T01:39:46;2.43;;;1.80;;
2029;SDS011;1020;48.854;8.830;2023-03-31T01:42:34;3.23;;;1.87;;
2029;SDS011;1020;48.854;8.830;2023-03-31T01:45:06;3.73;;;1.70;;
2029;SDS011;1020;48.854;8.830;2023-03-31T01:47:41;4.17;;;2.30;;
2029;SDS011;1020;48.854;8.830;2023-03-31T01:50:15;11.13;;;2.43;;
2029;SDS011;1020;48.854;8.830;2023-03-31T01:52:51;4.80;;;1.70;;
2029;SDS011;1020;48.854;8.830;2023-03-31T01:55:25;5.63;;;1.93;;
2029;SDS011;1020;48.854;8.830;2023-03-31T01:57:58;6.07;;;1.70;;
2029;SDS011;1020;48.854;8.830;2023-03-31T02:00:30;4.70;;;2.07;;
2029;SDS011;1020;48.854;8.830;2023-03-31T02:03:03;3.50;;;1.97;;
2029;SDS011;1020;48.854;8.830;2023-03-31T02:05:36;2.67;;;1.50;;
2029;SDS011;1020;48.854;8.830;2023-03-31T02:08:08;1.60;;;1.30;;
2029;SDS011;1020;48.854;8.830;2023-03-31T02:10:40;6.37;;;2.07;;
2029;SDS011;1020;48.854;8.830;2023-03-31T02:13:09;4.53;;;1.20;;
2029;SDS011;1020;48.854;8.830;2023-03-31T02:15:38;3.13;;;1.50;;
2029;SDS011;1020;48.854;8.830;2023-03-31T02:18:10;5.83;;;1.73;;
2029;SDS011;1020;48.854;8.830;2023-03-31T02:20:41;3.07;;;1.60;;
2029;SDS011;1020;48.854;8.830;2023-03-31T02:23:12;4.33;;;1.67;;
2029;SDS011;1020;48.854;8.830;2023-03-31T02:25:44;4.93;;;1.67;;
2029;SDS011;1020;48.854;8.830;2023-03-31T02:28:15;2.67;;;1.53;;
2029;SDS011;1020;48.854;8.830;2023-03-31T02:30:48;4.30;;;1.53;;
2029;SDS011;1020;48.854;8.830;2023-03-31T02:33:21;3.63;;;1.63;;
2029;SDS011;1020;48.854;8.830;2023-03-31T02:35:47;3.17;;;1.93;;
2029;SDS011;1020;48.854;8.830;2023-03-31T02:38:15;2.43;;;1.93;;
2029;SDS011;1020;48.854;8.830;2023-03-31T02:40:44;3.60;;;2.40;;
2029;SDS011;1020;48.854;8.830;2023-03-31T02:43:11;2.80;;;1.80;;
2029;SDS011;1020;48.854;8.830;2023-03-31T02:45:39;4.37;;;1.80;;
2029;SDS011;1020;48.854;8.830;2023-03-31T02:48:08;3.67;;;1.70;;
2029;SDS011;1020;48.854;8.830;2023-03-31T02:50:43;4.93;;;1.97;;
2029;SDS011;1020;48.854;8.830;2023-03-31T02:53:24;3.10;;;2.40;;
2029;SDS011;1020;48.854;8.830;2023-03-31T02:56:06;2.40;;;1.80;;
2029;SDS011;1020;48.854;8.830;2023-03-31T02:58:55;6.23;;;2.50;;
2029;SDS011;1020;48.854;8.830;2023-03-31T03:01:49;4.03;;;2.10;;
2029;SDS011;1020;48.854;8.830;2023-03-31T03:04:34;4.57;;;2.10;;
2029;SDS011;1020;48.854;8.830;2023-03-31T03:07:15;3.53;;;2.30;;
2029;SDS011;1020;48.854;8.830;2023-03-31T03:09:50;5.10;;;2.77;;
2029;SDS011;1020;48.854;8.830;2023-03-31T03:12:26;2.27;;;2.10;;
2029;SDS011;1020;48.854;8.830;2023-03-31T03:14:59;8.20;;;2.97;;
2029;SDS011;1020;48.854;8.830;2023-03-31T03:17:31;5.43;;;2.40;;
2029;SDS011;1020;48.854;8.830;2023-03-31T03:20:01;3.57;;;2.83;;
2029;SDS011;1020;48.854;8.830;2023-03-31T03:22:32;2.80;;;2.60;;
2029;SDS011;1020;48.854;8.830;2023-03-31T03:24:59;5.80;;;3.07;;
2029;SDS011;1020;48.854;8.830;2023-03-31T03:27:28;4.27;;;2.57;;
2029;SDS011;1020;48.854;8.830;2023-03-31T03:29:54;5.40;;;2.80;;
2029;SDS011;1020;48.854;8.830;2023-03-31T03:32:21;4.40;;;2.67;;
2029;SDS011;1020;48.854;8.830;2023-03-31T03:34:48;2.77;;;2.57;;
2029;SDS011;1020;48.854;8.830;2023-03-31T03:37:15;3.53;;;2.80;;
2029;SDS011;1020;48.854;8.830;2023-03-31T03:39:42;3.87;;;2.73;;
2029;SDS011;1020;48.854;8.830;2023-03-31T03:42:08;3.63;;;2.67;;
2029;SDS011;1020;48.854;8.830;2023-03-31T03:44:36;2.70;;;2.33;;
2029;SDS011;1020;48.854;8.830;2023-03-31T03:47:03;6.43;;;3.67;;
2029;SDS011;1020;48.854;8.830;2023-03-31T03:49:30;6.03;;;3.20;;
2029;SDS011;1020;48.854;8.830;2023-03-31T03:51:57;5.00;;;3.13;;
2029;SDS011;1020;48.854;8.830;2023-03-31T03:54:24;3.80;;;3.03;;
2029;SDS011;1020;48.854;8.830;2023-03-31T03:56:50;3.40;;;3.10;;
2029;SDS011;1020;48.854;8.830;2023-03-31T03:59:17;7.33;;;3.33;;
2029;SDS011;1020;48.854;8.830;2023-03-31T04:01:45;4.37;;;3.40;;
2029;SDS011;1020;48.854;8.830;2023-03-31T04:04:12;3.90;;;3.10;;
2029;SDS011;1020;48.854;8.830;2023-03-31T04:06:39;5.27;;;3.80;;
2029;SDS011;1020;48.854;8.830;2023-03-31T04:09:05;3.93;;;3.40;;
2029;SDS011;1020;48.854;8.830;2023-03-31T04:11:32;5.40;;;3.20;;
2029;SDS011;1020;48.854;8.830;2023-03-31T04:13:59;7.57;;;3.43;;
2029;SDS011;1020;48.854;8.830;2023-03-31T04:16:26;8.10;;;4.00;;
2029;SDS011;1020;48.854;8.830;2023-03-31T04:18:54;4.23;;;3.30;;
2029;SDS011;1020;48.854;8.830;2023-03-31T04:21:23;3.43;;;3.10;;
2029;SDS011;1020;48.854;8.830;2023-03-31T04:23:51;8.10;;;3.77;;
2029;SDS011;1020;48.854;8.830;2023-03-31T04:26:23;6.23;;;3.37;;
2029;SDS011;1020;48.854;8.830;2023-03-31T04:28:55;7.00;;;3.70;;
2029;SDS011;1020;48.854;8.830;2023-03-31T04:31:24;6.00;;;4.13;;
2029;SDS011;1020;48.854;8.830;2023-03-31T04:33:51;4.20;;;3.70;;
2029;SDS011;1020;48.854;8.830;2023-03-31T04:36:20;7.23;;;4.03;;
2029;SDS011;1020;48.854;8.830;2023-03-31T04:38:48;4.80;;;3.77;;
2029;SDS011;1020;48.854;8.830;2023-03-31T04:41:18;5.00;;;4.00;;
2029;SDS011;1020;48.854;8.830;2023-03-31T04:43:46;5.80;;;4.20;;
2029;SDS011;1020;48.854;8.830;2023-03-31T04:46:13;5.60;;;4.40;;
2029;SDS011;1020;48.854;8.830;2023-03-31T04:48:40;6.57;;;4.20;;
2029;SDS011;1020;48.854;8.830;2023-03-31T04:51:08;6.70;;;4.80;;
2029;SDS011;1020;48.854;8.830;2023-03-31T04:53:35;6.60;;;4.57;;
2029;SDS011;1020;48.854;8.830;2023-03-31T04:56:02;6.63;;;5.20;;
2029;SDS011;1020;48.854;8.830;2023-03-31T04:58:29;10.50;;;5.40;;
2029;SDS011;1020;48.854;8.830;2023-03-31T05:00:56;7.00;;;4.70;;
2029;SDS011;1020;48.854;8.830;2023-03-31T05:03:23;7.80;;;5.30;;
2029;SDS011;1020;48.854;8.830;2023-03-31T05:05:50;8.93;;;5.60;;
2029;SDS011;1020;48.854;8.830;2023-03-31T05:08:18;11.20;;;5.10;;
2029;SDS011;1020;48.854;8.830;2023-03-31T05:10:45;6.87;;;5.30;;
2029;SDS011;1020;48.854;8.830;2023-03-31T05:13:11;11.50;;;5.40;;
2029;SDS011;1020;48.854;8.830;2023-03-31T05:15:38;11.63;;;6.00;;
2029;SDS011;1020;48.854;8.830;2023-03-31T05:18:05;9.43;;;6.50;;
2029;SDS011;1020;48.854;8.830;2023-03-31T05:20:32;12.87;;;6.33;;
2029;SDS011;1020;48.854;8.830;2023-03-31T05:22:59;8.50;;;5.97;;
2029;SDS011;1020;48.854;8.830;2023-03-31T05:25:27;11.80;;;5.80;;
2029;SDS011;1020;48.854;8.830;2023-03-31T05:27:57;7.20;;;5.77;;
2029;SDS011;1020;48.854;8.830;2023-03-31T05:30:24;11.00;;;6.40;;
2029;SDS011;1020;48.854;8.830;2023-03-31T05:32:51;7.90;;;6.40;;
2029;SDS011;1020;48.854;8.830;2023-03-31T05:35:18;12.10;;;8.07;;
2029;SDS011;1020;48.854;8.830;2023-03-31T05:37:45;10.47;;;7.67;;
2029;SDS011;1020;48.854;8.830;2023-03-31T05:40:12;9.30;;;6.60;;
2029;SDS011;1020;48.854;8.830;2023-03-31T05:42:40;9.30;;;6.20;;
2029;SDS011;1020;48.854;8.830;2023-03-31T05:45:07;8.77;;;6.90;;
2029;SDS011;1020;48.854;8.830;2023-03-31T05:47:34;7.93;;;5.63;;
2029;SDS011;1020;48.854;8.830;2023-03-31T05:50:01;9.00;;;8.17;;
2029;SDS011;1020;48.854;8.830;2023-03-31T05:52:31;9.20;;;6.00;;
2029;SDS011;1020;48.854;8.830;2023-03-31T05:54:58;7.80;;;6.20;;
2029;SDS011;1020;48.854;8.830;2023-03-31T05:57:25;7.70;;;6.40;;
2029;SDS011;1020;48.854;8.830;2023-03-31T05:59:53;7.67;;;5.97;;
2029;SDS011;1020;48.854;8.830;2023-03-31T06:02:19;11.47;;;6.80;;
2029;SDS011;1020;48.854;8.830;2023-03-31T06:04:46;10.30;;;7.53;;
2029;SDS011;1020;48.854;8.830;2023-03-31T06:07:14;11.93;;;6.83;;
2029;SDS011;1020;48.854;8.830;2023-03-31T06:09:42;9.70;;;7.23;;
2029;SDS011;1020;48.854;8.830;2023-03-31T06:12:09;7.80;;;7.00;;
2029;SDS011;1020;48.854;8.830;2023-03-31T06:14:35;8.30;;;6.80;;
2029;SDS011;1020;48.854;8.830;2023-03-31T06:17:04;7.37;;;6.53;;
2029;SDS011;1020;48.854;8.830;2023-03-31T06:19:30;8.33;;;7.23;;
2029;SDS011;1020;48.854;8.830;2023-03-31T06:21:57;9.73;;;7.13;;
2029;SDS011;1020;48.854;8.830;2023-03-31T06:24:24;10.17;;;7.70;;
2029;SDS011;1020;48.854;8.830;2023-03-31T06:26:51;13.77;;;7.63;;
2029;SDS011;1020;48.854;8.830;2023-03-31T06:29:17;7.87;;;6.90;;
2029;SDS011;1020;48.854;8.830;2023-03-31T06:31:44;12.87;;;8.00;;
2029;SDS011;1020;48.854;8.830;2023-03-31T06:34:13;9.90;;;7.93;;
2029;SDS011;1020;48.854;8.830;2023-03-31T06:36:40;11.70;;;10.00;;
2029;SDS011;1020;48.854;8.830;2023-03-31T06:39:07;12.20;;;11.07;;
2029;SDS011;1020;48.854;8.830;2023-03-31T06:41:33;14.87;;;11.43;;
2029;SDS011;1020;48.854;8.830;2023-03-31T06:44:00;10.27;;;7.47;;
2029;SDS011;1020;48.854;8.830;2023-03-31T06:46:27;10.97;;;7.70;;
2029;SDS011;1020;48.854;8.830;2023-03-31T06:48:54;9.90;;;7.77;;
2029;SDS011;1020;48.854;8.830;2023-03-31T06:51:22;13.20;;;7.77;;
2029;SDS011;1020;48.854;8.830;2023-03-31T06:53:49;10.73;;;7.60;;
2029;SDS011;1020;48.854;8.830;2023-03-31T06:56:15;9.07;;;7.50;;
2029;SDS011;1020;48.854;8.830;2023-03-31T06:58:42;12.83;;;8.10;;
2029;SDS011;1020;48.854;8.830;2023-03-31T07:01:09;12.33;;;11.07;;
2029;SDS011;1020;48.854;8.830;2023-03-31T07:03:36;11.40;;;8.07;;
2029;SDS011;1020;48.854;8.830;2023-03-31T07:06:02;10.13;;;8.30;;
2029;SDS011;1020;48.854;8.830;2023-03-31T07:08:31;9.93;;;8.40;;
2029;SDS011;1020;48.854;8.830;2023-03-31T07:10:58;6.37;;;5.77;;
2029;SDS011;1020;48.854;8.830;2023-03-31T07:13:26;6.57;;;5.80;;
2029;SDS011;1020;48.854;8.830;2023-03-31T07:15:54;5.87;;;5.30;;
2029;SDS011;1020;48.854;8.830;2023-03-31T07:18:21;5.30;;;4.30;;
2029;SDS011;1020;48.854;8.830;2023-03-31T07:20:50;3.73;;;3.33;;
2029;SDS011;1020;48.854;8.830;2023-03-31T07:23:17;4.30;;;3.90;;
2029;SDS011;1020;48.854;8.830;2023-03-31T07:25:46;5.07;;;4.00;;
2029;SDS011;1020;48.854;8.830;2023-03-31T07:28:13;3.73;;;3.30;;
2029;SDS011;1020;48.854;8.830;2023-03-31T07:30:41;4.37;;;2.87;;
2029;SDS011;1020;48.854;8.830;2023-03-31T07:33:07;3.40;;;2.50;;
2029;SDS011;1020;48.854;8.830;2023-03-31T07:35:36;2.80;;;2.20;;
2029;SDS011;1020;48.854;8.830;2023-03-31T07:38:03;2.87;;;2.67;;
2029;SDS011;1020;48.854;8.830;2023-03-31T07:40:30;2.80;;;2.53;;
2029;SDS011;1020;48.854;8.830;2023-03-31T07:42:58;2.10;;;1.20;;
2029;SDS011;1020;48.854;8.830;2023-03-31T07:45:26;3.00;;;2.07;;
2029;SDS011;1020;48.854;8.830;2023-03-31T07:47:53;2.57;;;2.20;;
2029;SDS011;1020;48.854;8.830;2023-03-31T07:50:20;2.93;;;1.40;;
2029;SDS011;1020;48.854;8.830;2023-03-31T07:52:47;1.67;;;1.57;;
2029;SDS011;1020;48.854;8.830;2023-03-31T07:55:15;2.30;;;1.90;;
2029;SDS011;1020;48.854;8.830;2023-03-31T07:57:42;2.20;;;1.50;;
2029;SDS011;1020;48.854;8.830;2023-03-31T08:00:12;2.30;;;2.10;;
2029;SDS011;1020;48.854;8.830;2023-03-31T08:02:40;2.00;;;1.80;;
2029;SDS011;1020;48.854;8.830;2023-03-31T08:05:08;3.20;;;1.80;;
2029;SDS011;1020;48.854;8.830;2023-03-31T08:07:35;2.10;;;1.90;;
2029;SDS011;1020;48.854;8.830;2023-03-31T08:10:05;6.97;;;3.90;;
2029;SDS011;1020;48.854;8.830;2023-03-31T08:12:35;4.70;;;2.27;;
2029;SDS011;1020;48.854;8.830;2023-03-31T08:15:02;2.13;;;1.67;;
2029;SDS011;1020;48.854;8.830;2023-03-31T08:17:31;2.43;;;2.07;;
2029;SDS011;1020;48.854;8.830;2023-03-31T08:19:58;3.33;;;1.90;;
2029;SDS011;1020;48.854;8.830;2023-03-31T08:22:25;2.30;;;2.03;;
2029;SDS011;1020;48.854;8.830;2023-03-31T08:24:52;5.13;;;2.03;;
2029;SDS011;1020;48.854;8.830;2023-03-31T08:27:18;2.70;;;1.67;;
2029;SDS011;1020;48.854;8.830;2023-03-31T08:29:45;4.70;;;2.30;;
2029;SDS011;1020;48.854;8.830;2023-03-31T08:32:12;3.80;;;2.13;;
2029;SDS011;1020;48.854;8.830;2023-03-31T08:34:40;3.80;;;1.80;;
2029;SDS011;1020;48.854;8.830;2023-03-31T08:37:07;3.47;;;2.57;;
2029;SDS011;1020;48.854;8.830;2023-03-31T08:39:34;2.43;;;1.37;;
2029;SDS011;1020;48.854;8.830;2023-03-31T08:42:02;2.03;;;1.67;;
2029;SDS011;1020;48.854;8.830;2023-03-31T08:44:33;2.00;;;1.80;;
2029;SDS011;1020;48.854;8.830;2023-03-31T08:47:03;2.50;;;1.33;;
2029;SDS011;1020;48.854;8.830;2023-03-31T08:49:37;3.00;;;1.90;;
2029;SDS011;1020;48.854;8.830;2023-03-31T08:52:10;2.77;;;1.60;;
2029;SDS011;1020;48.854;8.830;2023-03-31T08:54:41;1.90;;;1.70;;
2029;SDS011;1020;48.854;8.830;2023-03-31T08:57:11;2.03;;;1.43;;
2029;SDS011;1020;48.854;8.830;2023-03-31T08:59:43;7.27;;;2.90;;
2029;SDS011;1020;48.854;8.830;2023-03-31T09:02:13;1.87;;;1.40;;
2029;SDS011;1020;48.854;8.830;2023-03-31T09:07:45;3.60;;;2.30;;
2029;SDS011;1020;48.854;8.830;2023-03-31T09:10:22;3.40;;;1.80;;
2029;SDS011;1020;48.854;8.830;2023-03-31T09:13:04;4.27;;;2.00;;
2029;SDS011;1020;48.854;8.830;2023-03-31T09:15:43;4.13;;;2.47;;
2029;SDS011;1020;48.854;8.830;2023-03-31T09:18:17;2.10;;;1.43;;
2029;SDS011;1020;48.854;8.830;2023-03-31T09:20:50;2.10;;;1.50;;
2029;SDS011;1020;48.854;8.830;2023-03-31T09:23:23;1.50;;;1.30;;
2029;SDS011;1020;48.854;8.830;2023-03-31T09:25:55;1.63;;;1.53;;
2029;SDS011;1020;48.854;8.830;2023-03-31T09:28:25;3.83;;;1.80;;
2029;SDS011;1020;48.854;8.830;2023-03-31T09:30:55;4.00;;;1.70;;
2029;SDS011;1020;48.854;8.830;2023-03-31T09:33:26;1.40;;;1.30;;
2029;SDS011;1020;48.854;8.830;2023-03-31T09:35:56;3.67;;;1.60;;
2029;SDS011;1020;48.854;8.830;2023-03-31T09:38:24;4.60;;;1.97;;
2029;SDS011;1020;48.854;8.830;2023-03-31T09:40:53;3.77;;;1.73;;
2029;SDS011;1020;48.854;8.830;2023-03-31T09:43:21;2.70;;;1.80;;
2029;SDS011;1020;48.854;8.830;2023-03-31T09:45:49;6.83;;;1.67;;
2029;SDS011;1020;48.854;8.830;2023-03-31T09:48:17;2.83;;;1.60;;
2029;SDS011;1020;48.854;8.830;2023-03-31T09:50:48;3.07;;;1.37;;
2029;SDS011;1020;48.854;8.830;2023-03-31T09:53:19;4.97;;;1.80;;
2029;SDS011;1020;48.854;8.830;2023-03-31T09:55:55;3.87;;;2.03;;
2029;SDS011;1020;48.854;8.830;2023-03-31T09:58:26;4.73;;;1.67;;
2029;SDS011;1020;48.854;8.830;2023-03-31T10:00:57;6.50;;;2.40;;
2029;SDS011;1020;48.854;8.830;2023-03-31T10:03:25;4.60;;;2.10;;
2029;SDS011;1020;48.854;8.830;2023-03-31T10:05:54;4.03;;;1.70;;
2029;SDS011;1020;48.854;8.830;2023-03-31T10:08:24;2.70;;;1.57;;
2029;SDS011;1020;48.854;8.830;2023-03-31T10:10:56;3.67;;;1.73;;
2029;SDS011;1020;48.854;8.830;2023-03-31T10:13:34;4.90;;;2.43;;
2029;SDS011;1020;48.854;8.830;2023-03-31T10:16:09;3.27;;;1.60;;
2029;SDS011;1020;48.854;8.830;2023-03-31T10:18:39;3.40;;;1.63;;
2029;SDS011;1020;48.854;8.830;2023-03-31T10:21:09;3.40;;;1.30;;
2029;SDS011;1020;48.854;8.830;2023-03-31T10:23:45;4.97;;;2.27;;
2029;SDS011;1020;48.854;8.830;2023-03-31T10:26:15;4.47;;;2.57;;
2029;SDS011;1020;48.854;8.830;2023-03-31T10:28:44;4.63;;;2.20;;
2029;SDS011;1020;48.854;8.830;2023-03-31T10:31:13;6.27;;;3.10;;
2029;SDS011;1020;48.854;8.830;2023-03-31T10:33:41;1.60;;;1.17;;
2029;SDS011;1020;48.854;8.830;2023-03-31T10:36:14;3.43;;;1.60;;
2029;SDS011;1020;48.854;8.830;2023-03-31T10:38:46;4.43;;;1.23;;
2029;SDS011;1020;48.854;8.830;2023-03-31T10:41:18;6.20;;;1.20;;
2029;SDS011;1020;48.854;8.830;2023-03-31T10:43:47;3.17;;;1.23;;
2029;SDS011;1020;48.854;8.830;2023-03-31T10:46:16;3.57;;;2.00;;
2029;SDS011;1020;48.854;8.830;2023-03-31T10:48:43;4.53;;;1.53;;
2029;SDS011;1020;48.854;8.830;2023-03-31T10:51:11;3.23;;;1.30;;
2029;SDS011;1020;48.854;8.830;2023-03-31T10:53:42;5.70;;;1.70;;
2029;SDS011;1020;48.854;8.830;2023-03-31T10:56:25;4.23;;;1.90;;
2029;SDS011;1020;48.854;8.830;2023-03-31T10:59:13;1.53;;;1.30;;
2029;SDS011;1020;48.854;8.830;2023-03-31T11:02:02;2.33;;;1.13;;
2029;SDS011;1020;48.854;8.830;2023-03-31T11:04:46;3.13;;;1.23;;
2029;SDS011;1020;48.854;8.830;2023-03-31T11:07:24;5.40;;;1.80;;
2029;SDS011;1020;48.854;8.830;2023-03-31T11:10:14;1.50;;;0.80;;
2029;SDS011;1020;48.854;8.830;2023-03-31T11:12:51;1.70;;;0.87;;
2029;SDS011;1020;48.854;8.830;2023-03-31T11:15:24;2.10;;;0.73;;
2029;SDS011;1020;48.854;8.830;2023-03-31T11:18:05;2.53;;;0.93;;
2029;SDS011;1020;48.854;8.830;2023-03-31T11:20:46;3.70;;;1.87;;
2029;SDS011;1020;48.854;8.830;2023-03-31T11:23:19;3.27;;;2.37;;
2029;SDS011;1020;48.854;8.830;2023-03-31T11:25:58;1.70;;;0.80;;
2029;SDS011;1020;48.854;8.830;2023-03-31T11:28:37;1.00;;;0.80;;
2029;SDS011;1020;48.854;8.830;2023-03-31T11:31:18;5.17;;;4.20;;
2029;SDS011;1020;48.854;8.830;2023-03-31T11:34:06;0.90;;;0.87;;
2029;SDS011;1020;48.854;8.830;2023-03-31T11:36:51;4.30;;;2.10;;
2029;SDS011;1020;48.854;8.830;2023-03-31T11:39:58;1.00;;;0.80;;
2029;SDS011;1020;48.854;8.830;2023-03-31T11:42:36;1.20;;;1.10;;
2029;SDS011;1020;48.854;8.830;2023-03-31T11:45:11;1.93;;;1.27;;
2029;SDS011;1020;48.854;8.830;2023-03-31T11:47:41;1.10;;;1.10;;
2029;SDS011;1020;48.854;8.830;2023-03-31T11:50:12;1.20;;;1.10;;
2029;SDS011;1020;48.854;8.830;2023-03-31T11:52:44;1.60;;;1.00;;
2029;SDS011;1020;48.854;8.830;2023-03-31T11:55:20;1.10;;;1.10;;
2029;SDS011;1020;48.854;8.830;2023-03-31T11:57:51;1.60;;;0.93;;
2029;SDS011;1020;48.854;8.830;2023-03-31T12:00:27;0.97;;;0.60;;
2029;SDS011;1020;48.854;8.830;2023-03-31T12:02:58;0.63;;;0.63;;
2029;SDS011;1020;48.854;8.830;2023-03-31T12:05:30;1.30;;;0.87;;
2029;SDS011;1020;48.854;8.830;2023-03-31T12:08:00;0.90;;;0.60;;
2029;SDS011;1020;48.854;8.830;2023-03-31T12:10:32;2.67;;;0.70;;
2029;SDS011;1020;48.854;8.830;2023-03-31T12:13:02;1.40;;;0.93;;
2029;SDS011;1020;48.854;8.830;2023-03-31T12:15:41;1.13;;;1.03;;
2029;SDS011;1020;48.854;8.830;2023-03-31T12:18:17;3.60;;;1.37;;
2029;SDS011;1020;48.854;8.830;2023-03-31T12:20:48;2.63;;;0.67;;
2029;SDS011;1020;48.854;8.830;2023-03-31T12:23:18;1.43;;;1.00;;
2029;SDS011;1020;48.854;8.830;2023-03-31T12:25:49;1.17;;;1.00;;
2029;SDS011;1020;48.854;8.830;2023-03-31T12:28:20;1.53;;;1.03;;
2029;SDS011;1020;48.854;8.830;2023-03-31T12:30:50;3.17;;;0.80;;
2029;SDS011;1020;48.854;8.830;2023-03-31T12:33:17;1.60;;;1.10;;
2029;SDS011;1020;48.854;8.830;2023-03-31T12:35:50;1.03;;;0.80;;
2029;SDS011;1020;48.854;8.830;2023-03-31T12:38:32;2.03;;;1.20;;
2029;SDS011;1020;48.854;8.830;2023-03-31T12:41:17;3.87;;;1.00;;
2029;SDS011;1020;48.854;8.830;2023-03-31T12:43:55;3.23;;;1.00;;
2029;SDS011;1020;48.854;8.830;2023-03-31T12:46:41;4.97;;;1.53;;
2029;SDS011;1020;48.854;8.830;2023-03-31T12:49:27;3.43;;;1.30;;
2029;SDS011;1020;48.854;8.830;2023-03-31T12:52:01;2.70;;;1.13;;
2029;SDS011;1020;48.854;8.830;2023-03-31T12:54:34;5.20;;;1.43;;
2029;SDS011;1020;48.854;8.830;2023-03-31T12:57:13;4.33;;;1.63;;
2029;SDS011;1020;48.854;8.830;2023-03-31T12:59:45;2.70;;;1.10;;
2029;SDS011;1020;48.854;8.830;2023-03-31T13:02:31;2.70;;;1.27;;
2029;SDS011;1020;48.854;8.830;2023-03-31T13:04:58;6.33;;;1.00;;
2029;SDS011;1020;48.854;8.830;2023-03-31T13:07:34;5.27;;;1.73;;
2029;SDS011;1020;48.854;8.830;2023-03-31T13:12:55;1.07;;;0.90;;
2029;SDS011;1020;48.854;8.830;2023-03-31T13:15:27;1.83;;;0.80;;
2029;SDS011;1020;48.854;8.830;2023-03-31T13:17:57;1.53;;;1.43;;
2029;SDS011;1020;48.854;8.830;2023-03-31T13:20:28;2.10;;;1.07;;
2029;SDS011;1020;48.854;8.830;2023-03-31T13:23:01;1.63;;;1.00;;
2029;SDS011;1020;48.854;8.830;2023-03-31T13:25:34;1.53;;;0.70;;
2029;SDS011;1020;48.854;8.830;2023-03-31T13:28:15;1.60;;;0.90;;
2029;SDS011;1020;48.854;8.830;2023-03-31T13:30:50;0.77;;;0.60;;
2029;SDS011;1020;48.854;8.830;2023-03-31T13:33:23;1.53;;;0.70;;
2029;SDS011;1020;48.854;8.830;2023-03-31T13:35:56;1.13;;;0.70;;
2029;SDS011;1020;48.854;8.830;2023-03-31T13:38:50;1.10;;;0.70;;
2029;SDS011;1020;48.854;8.830;2023-03-31T13:41:31;0.70;;;0.60;;
2029;SDS011;1020;48.854;8.830;2023-03-31T13:44:24;1.57;;;0.90;;
2029;SDS011;1020;48.854;8.830;2023-03-31T13:47:09;1.53;;;0.77;;
2029;SDS011;1020;48.854;8.830;2023-03-31T13:50:09;0.90;;;0.67;;
2029;SDS011;1020;48.854;8.830;2023-03-31T13:52:46;0.80;;;0.60;;
2029;SDS011;1020;48.854;8.830;2023-03-31T13:55:33;2.57;;;0.80;;
2029;SDS011;1020;48.854;8.830;2023-03-31T14:01:43;1.70;;;0.80;;
2029;SDS011;1020;48.854;8.830;2023-03-31T14:04:29;1.53;;;0.70;;
2029;SDS011;1020;48.854;8.830;2023-03-31T14:07:14;4.03;;;0.80;;
2029;SDS011;1020;48.854;8.830;2023-03-31T14:09:44;1.90;;;0.80;;
2029;SDS011;1020;48.854;8.830;2023-03-31T14:12:20;1.83;;;1.20;;
2029;SDS011;1020;48.854;8.830;2023-03-31T14:14:54;2.80;;;1.07;;
2029;SDS011;1020;48.854;8.830;2023-03-31T14:17:21;3.67;;;1.20;;
2029;SDS011;1020;48.854;8.830;2023-03-31T14:19:55;4.57;;;0.77;;
2029;SDS011;1020;48.854;8.830;2023-03-31T14:22:37;2.10;;;1.00;;
2029;SDS011;1020;48.854;8.830;2023-03-31T14:25:12;1.20;;;1.03;;
2029;SDS011;1020;48.854;8.830;2023-03-31T14:27:49;2.50;;;0.83;;
2029;SDS011;1020;48.854;8.830;2023-03-31T14:30:25;1.03;;;0.70;;
2029;SDS011;1020;48.854;8.830;2023-03-31T14:33:05;0.70;;;0.70;;
2029;SDS011;1020;48.854;8.830;2023-03-31T14:35:42;1.73;;;0.50;;
2029;SDS011;1020;48.854;8.830;2023-03-31T14:38:20;1.00;;;0.73;;
2029;SDS011;1020;48.854;8.830;2023-03-31T14:40:48;1.00;;;0.60;;
2029;SDS011;1020;48.854;8.830;2023-03-31T14:43:18;1.17;;;0.70;;
2029;SDS011;1020;48.854;8.830;2023-03-31T14:45:47;1.27;;;0.83;;
2029;SDS011;1020;48.854;8.830;2023-03-31T14:48:22;4.00;;;0.70;;
2029;SDS011;1020;48.854;8.830;2023-03-31T14:50:55;2.63;;;0.90;;
2029;SDS011;1020;48.854;8.830;2023-03-31T14:53:24;1.43;;;0.77;;
2029;SDS011;1020;48.854;8.830;2023-03-31T14:55:53;2.10;;;1.17;;
2029;SDS011;1020;48.854;8.830;2023-03-31T14:58:27;1.23;;;0.83;;
2029;SDS011;1020;48.854;8.830;2023-03-31T15:00:58;2.80;;;0.70;;
2029;SDS011;1020;48.854;8.830;2023-03-31T15:03:27;1.00;;;0.60;;
2029;SDS011;1020;48.854;8.830;2023-03-31T15:05:55;0.80;;;0.80;;
2029;SDS011;1020;48.854;8.830;2023-03-31T15:08:24;0.93;;;0.70;;
2029;SDS011;1020;48.854;8.830;2023-03-31T15:10:54;1.27;;;0.90;;
2029;SDS011;1020;48.854;8.830;2023-03-31T15:13:25;0.70;;;0.70;;
2029;SDS011;1020;48.854;8.830;2023-03-31T15:15:56;0.80;;;0.63;;
2029;SDS011;1020;48.854;8.830;2023-03-31T15:18:24;0.83;;;0.60;;
2029;SDS011;1020;48.854;8.830;2023-03-31T15:20:51;2.10;;;1.13;;
2029;SDS011;1020;48.854;8.830;2023-03-31T15:23:19;1.07;;;0.73;;
2029;SDS011;1020;48.854;8.830;2023-03-31T15:25:50;1.57;;;0.80;;
2029;SDS011;1020;48.854;8.830;2023-03-31T15:28:20;1.57;;;0.90;;
2029;SDS011;1020;48.854;8.830;2023-03-31T15:30:48;2.40;;;0.70;;
2029;SDS011;1020;48.854;8.830;2023-03-31T15:33:17;2.83;;;1.37;;
2029;SDS011;1020;48.854;8.830;2023-03-31T15:35:47;1.60;;;1.00;;
2029;SDS011;1020;48.854;8.830;2023-03-31T15:38:14;1.57;;;0.60;;
2029;SDS011;1020;48.854;8.830;2023-03-31T15:40:43;1.50;;;0.80;;
2029;SDS011;1020;48.854;8.830;2023-03-31T15:43:15;3.17;;;0.97;;
2029;SDS011;1020;48.854;8.830;2023-03-31T15:45:47;1.03;;;0.70;;
2029;SDS011;1020;48.854;8.830;2023-03-31T15:48:20;2.53;;;1.17;;
2029;SDS011;1020;48.854;8.830;2023-03-31T15:50:51;1.10;;;0.70;;
2029;SDS011;1020;48.854;8.830;2023-03-31T15:53:28;2.23;;;0.77;;
2029;SDS011;1020;48.854;8.830;2023-03-31T15:55:57;2.73;;;0.80;;